Time;durP1;ratioP1;P1;durP2;ratioP2;P2;SDS_P1;SDS_P2;PMS_P1;PMS_P2;Temp;Humidity;BMP_temperature;BMP_pressure;BME280_temperature;BME280_humidity;BME280_pressure;Samples;Min_cycle;Max_cycle;Signal;HPM_P1;HPM_P2
2023/01/06 05:02:17;;;;;;;13.40;7.57;;;8.60;99.90;;;;;;5149335;23;21176;-72
2023/01/06 05:04:44;;;;;;;10.50;7.10;;;8.60;99.90;;;;;;4969655;28;20437;-71
2023/01/06 05:07:10;;;;;;;11.23;7.07;;;8.60;99.90;;;;;;4968396;28;20460;-72
2023/01/06 05:09:37;;;;;;;10.80;6.93;;;8.70;99.90;;;;;;4969887;28;20449;-72
2023/01/06 05:12:04;;;;;;;13.40;6.90;;;8.70;99.90;;;;;;4954410;28;20477;-72
2023/01/06 05:14:31;;;;;;;11.83;7.30;;;8.80;99.90;;;;;;4950066;28;20465;-71
2023/01/06 05:16:58;;;;;;;10.07;6.50;;;8.80;99.90;;;;;;4949627;28;20453;-72
2023/01/06 05:19:26;;;;;;;11.83;6.80;;;8.80;99.90;;;;;;4949944;28;20497;-72
2023/01/06 05:21:52;;;;;;;11.30;6.50;;;8.80;99.90;;;;;;4950116;28;20488;-72
2023/01/06 05:24:19;;;;;;;14.93;6.93;;;8.80;99.90;;;;;;4949711;28;20546;-72
2023/01/06 05:26:46;;;;;;;13.93;7.37;;;8.90;99.90;;;;;;4948920;28;20453;-72
2023/01/06 05:29:16;;;;;;;10.37;7.17;;;8.90;99.90;;;;;;4949838;28;20788;-72
2023/01/06 05:31:42;;;;;;;13.43;7.60;;;8.90;99.90;;;;;;4949296;28;20486;-72
2023/01/06 05:34:10;;;;;;;13.17;8.70;;;9.00;99.90;;;;;;4949942;28;21337;-72
2023/01/06 05:36:38;;;;;;;11.43;7.47;;;9.00;99.90;;;;;;4949280;28;20477;-71
2023/01/06 05:39:05;;;;;;;11.93;7.97;;;9.00;99.90;;;;;;4949406;28;20503;-72
2023/01/06 05:41:32;;;;;;;11.90;8.87;;;9.00;99.90;;;;;;4949418;28;20489;-72
2023/01/06 05:43:58;;;;;;;15.87;8.70;;;9.00;99.90;;;;;;4950017;28;20552;-72
2023/01/06 05:46:25;;;;;;;14.00;7.50;;;9.00;99.90;;;;;;4949064;28;20461;-72
2023/01/06 05:48:52;;;;;;;10.57;7.60;;;8.90;99.90;;;;;;4949631;28;20454;-72
2023/01/06 05:51:19;;;;;;;16.20;9.07;;;8.90;99.90;;;;;;4949287;28;21005;-72
2023/01/06 05:53:48;;;;;;;13.07;7.20;;;8.90;99.90;;;;;;4949143;28;20461;-72
2023/01/06 05:56:17;;;;;;;13.40;7.60;;;8.90;99.90;;;;;;4948444;28;20461;-72
2023/01/06 05:58:45;;;;;;;11.00;7.03;;;8.90;99.90;;;;;;4949543;28;20497;-72
2023/01/06 06:01:16;;;;;;;12.07;7.90;;;9.00;99.90;;;;;;4949311;28;20493;-72
2023/01/06 06:03:43;;;;;;;12.67;8.97;;;9.00;99.90;;;;;;4949525;28;20434;-72
2023/01/06 06:06:10;;;;;;;14.43;8.97;;;9.00;99.90;;;;;;4948183;28;20453;-72
2023/01/06 06:08:36;;;;;;;14.17;8.70;;;9.00;99.90;;;;;;4949159;28;20457;-72
2023/01/06 06:11:06;;;;;;;13.70;8.17;;;9.00;99.90;;;;;;4949099;28;20481;-72
2023/01/06 06:13:33;;;;;;;10.10;7.77;;;9.10;99.90;;;;;;4948899;28;20467;-72
2023/01/06 06:16:07;;;;;;;12.83;8.10;;;9.10;99.90;;;;;;4948558;28;20495;-72
2023/01/06 06:18:35;;;;;;;12.13;7.67;;;9.10;99.90;;;;;;4947662;28;20500;-72
2023/01/06 06:21:02;;;;;;;12.53;7.83;;;9.10;99.90;;;;;;4948626;28;20499;-72
2023/01/06 06:23:29;;;;;;;13.97;7.37;;;9.10;99.90;;;;;;4948833;28;20457;-72
2023/01/06 06:25:56;;;;;;;8.93;7.17;;;9.10;99.90;;;;;;4948488;28;20461;-72
2023/01/06 06:28:24;;;;;;;12.83;7.27;;;9.10;99.90;;;;;;4948569;28;20678;-72
2023/01/06 06:30:51;;;;;;;12.10;7.43;;;9.10;99.90;;;;;;4948489;28;20485;-72
2023/01/06 06:33:18;;;;;;;15.17;6.90;;;9.10;99.90;;;;;;4948682;28;20452;-72
2023/01/06 06:35:44;;;;;;;9.37;6.83;;;9.20;99.90;;;;;;4948737;28;20464;-72
2023/01/06 06:38:11;;;;;;;11.07;7.07;;;9.20;99.90;;;;;;4947971;28;20460;-72
2023/01/06 06:40:38;;;;;;;9.93;7.60;;;9.20;99.90;;;;;;4947194;28;20477;-72
2023/01/06 06:43:05;;;;;;;10.83;7.27;;;9.20;99.90;;;;;;4948559;28;20472;-72
2023/01/06 06:45:33;;;;;;;12.67;8.17;;;9.30;99.90;;;;;;4948031;28;20516;-72
2023/01/06 06:47:59;;;;;;;10.27;7.20;;;9.30;99.90;;;;;;4947736;28;20464;-72
2023/01/06 06:50:26;;;;;;;10.90;7.10;;;9.30;99.90;;;;;;4947593;28;20464;-72
2023/01/06 06:52:55;;;;;;;13.07;9.60;;;9.30;99.90;;;;;;4947403;28;20470;-72
2023/01/06 06:55:21;;;;;;;12.93;7.57;;;9.30;99.90;;;;;;4951511;28;20464;-72
2023/01/06 06:57:48;;;;;;;9.10;7.00;;;9.40;99.90;;;;;;4956239;28;20465;-72
2023/01/06 07:00:16;;;;;;;7.67;6.13;;;9.40;99.90;;;;;;4948350;28;20502;-72
2023/01/06 07:02:47;;;;;;;11.33;6.80;;;9.40;99.90;;;;;;4948164;28;20493;-72
2023/01/06 07:05:14;;;;;;;9.20;6.70;;;9.40;99.90;;;;;;4948388;28;20434;-72
2023/01/06 07:07:41;;;;;;;12.03;7.30;;;9.40;99.90;;;;;;4946878;28;20458;-73
2023/01/06 07:10:11;;;;;;;8.00;6.80;;;9.40;99.90;;;;;;4947010;28;20476;-72
2023/01/06 07:12:37;;;;;;;8.47;6.50;;;9.40;99.90;;;;;;4947928;28;20492;-72
2023/01/06 07:15:05;;;;;;;12.33;7.50;;;9.40;99.90;;;;;;4947673;28;20476;-71
2023/01/06 07:17:32;;;;;;;10.27;6.57;;;9.40;99.90;;;;;;4947456;28;20466;-72
2023/01/06 07:20:00;;;;;;;10.50;6.70;;;9.40;99.90;;;;;;4954538;28;20507;-73
2023/01/06 07:22:27;;;;;;;14.03;7.00;;;9.40;99.90;;;;;;4952752;28;20489;-73
2023/01/06 07:24:53;;;;;;;7.27;6.23;;;9.40;99.90;;;;;;4948045;28;20957;-71
2023/01/06 07:27:20;;;;;;;16.63;7.20;;;9.40;99.90;;;;;;4955032;28;20460;-73
2023/01/06 07:29:47;;;;;;;9.70;6.67;;;9.40;99.90;;;;;;4955195;28;20468;-73
2023/01/06 07:32:14;;;;;;;12.03;6.80;;;9.40;99.90;;;;;;4952855;28;20485;-73
2023/01/06 07:34:40;;;;;;;10.37;6.37;;;9.40;99.90;;;;;;4955496;28;20460;-71
2023/01/06 07:37:09;;;;;;;10.53;6.40;;;9.40;99.90;;;;;;4954094;28;20472;-73
2023/01/06 07:39:35;;;;;;;8.77;7.27;;;9.40;99.90;;;;;;4964601;28;20512;-72
2023/01/06 07:42:02;;;;;;;10.00;6.90;;;9.40;99.90;;;;;;4966898;28;20479;-73
2023/01/06 07:44:29;;;;;;;12.57;8.30;;;9.40;99.90;;;;;;4959175;28;21238;-73
2023/01/06 07:46:56;;;;;;;9.73;6.80;;;9.30;99.90;;;;;;4956584;28;20467;-73
2023/01/06 07:49:22;;;;;;;10.80;7.37;;;9.30;99.90;;;;;;4956263;28;20467;-71
2023/01/06 07:51:49;;;;;;;11.90;7.70;;;9.30;99.90;;;;;;4955132;28;20484;-73
2023/01/06 07:54:17;;;;;;;9.30;7.17;;;9.30;99.90;;;;;;4955269;28;20465;-73
2023/01/06 07:56:44;;;;;;;11.17;8.60;;;9.30;99.90;;;;;;4954722;28;20461;-73
2023/01/06 07:59:11;;;;;;;9.50;8.37;;;9.30;99.90;;;;;;4950809;28;20497;-73
2023/01/06 08:01:38;;;;;;;17.43;10.00;;;9.30;99.90;;;;;;4953916;28;20502;-71
2023/01/06 08:04:05;;;;;;;12.30;8.00;;;9.30;99.90;;;;;;4956520;28;20464;-73
2023/01/06 08:06:31;;;;;;;10.43;6.80;;;9.30;99.90;;;;;;4960140;28;20461;-73
2023/01/06 08:08:58;;;;;;;9.10;7.57;;;9.40;99.90;;;;;;4952357;28;20462;-73
2023/01/06 08:11:26;;;;;;;8.20;5.70;;;9.40;99.90;;;;;;4956438;28;20487;-73
2023/01/06 08:13:53;;;;;;;9.23;4.33;;;9.40;99.90;;;;;;4954984;28;21020;-73
2023/01/06 08:16:20;;;;;;;4.80;3.17;;;9.30;99.90;;;;;;4954998;28;20468;-73
2023/01/06 08:18:47;;;;;;;3.93;3.00;;;9.20;99.90;;;;;;4954612;28;20465;-72
2023/01/06 08:21:13;;;;;;;3.13;2.83;;;9.10;99.90;;;;;;4958433;28;20480;-72
2023/01/06 08:23:40;;;;;;;3.97;3.57;;;9.10;99.90;;;;;;4947308;28;20460;-72
2023/01/06 08:26:09;;;;;;;4.10;2.90;;;9.10;99.90;;;;;;4949152;28;20471;-72
2023/01/06 08:28:38;;;;;;;2.93;2.63;;;9.10;99.90;;;;;;4953359;28;20457;-73
2023/01/06 08:31:08;;;;;;;4.67;3.20;;;9.10;99.90;;;;;;4956031;28;20495;-73
2023/01/06 08:33:34;;;;;;;3.67;2.83;;;9.10;99.90;;;;;;4953379;28;20460;-72
2023/01/06 08:36:04;;;;;;;2.63;2.30;;;9.10;99.90;;;;;;4955884;28;20457;-72
2023/01/06 08:38:32;;;;;;;9.87;2.30;;;9.20;99.90;;;;;;4946792;28;20545;-73
2023/01/06 08:40:59;;;;;;;2.70;2.50;;;9.20;99.90;;;;;;4946605;28;20504;-73
2023/01/06 08:43:26;;;;;;;2.53;2.33;;;9.20;99.90;;;;;;4950108;28;20457;-71
2023/01/06 08:45:59;;;;;;;3.03;2.63;;;9.20;99.90;;;;;;4950502;28;20835;-70
2023/01/06 08:48:30;;;;;;;2.97;2.67;;;9.20;99.90;;;;;;4950279;28;20447;-71
2023/01/06 08:51:01;;;;;;;2.73;2.43;;;9.20;99.90;;;;;;4949890;28;20850;-73
2023/01/06 08:53:28;;;;;;;3.27;2.10;;;9.20;99.90;;;;;;4950545;28;20452;-73
2023/01/06 08:55:54;;;;;;;4.40;2.50;;;9.20;99.90;;;;;;4949692;28;20977;-73
2023/01/06 08:58:21;;;;;;;3.80;2.70;;;9.20;99.90;;;;;;4950508;28;20459;-72
2023/01/06 09:00:48;;;;;;;4.10;2.60;;;9.30;99.90;;;;;;4949913;28;20496;-72
2023/01/06 09:03:16;;;;;;;3.57;1.90;;;9.30;99.90;;;;;;4958963;28;20471;-72
2023/01/06 09:05:43;;;;;;;2.70;2.40;;;9.40;99.90;;;;;;4959696;28;20464;-70
2023/01/06 09:08:10;;;;;;;2.77;2.47;;;9.40;99.90;;;;;;4961983;28;20464;-73
2023/01/06 09:10:37;;;;;;;3.30;2.60;;;9.40;99.90;;;;;;4969034;28;20992;-73
2023/01/06 09:13:04;;;;;;;2.50;2.17;;;9.40;99.90;;;;;;4969537;28;20460;-73
2023/01/06 09:15:31;;;;;;;3.77;2.80;;;9.50;99.90;;;;;;4968531;28;20456;-72
2023/01/06 09:17:58;;;;;;;2.50;2.30;;;9.50;99.90;;;;;;4961280;28;20456;-73
2023/01/06 09:20:26;;;;;;;3.87;2.33;;;9.50;99.90;;;;;;4969207;28;20492;-72
2023/01/06 09:22:52;;;;;;;3.00;2.03;;;9.60;99.90;;;;;;4969214;28;20444;-71
2023/01/06 09:25:21;;;;;;;3.30;2.40;;;9.50;99.90;;;;;;4969099;28;20467;-73
2023/01/06 09:27:48;;;;;;;5.93;2.20;;;9.60;99.90;;;;;;4968409;28;20463;-73
2023/01/06 09:30:15;;;;;;;2.23;1.80;;;9.60;99.90;;;;;;4969027;28;20443;-73
2023/01/06 09:32:42;;;;;;;2.33;2.13;;;9.60;99.90;;;;;;4968780;28;20483;-72
2023/01/06 09:35:10;;;;;;;3.03;1.80;;;9.70;99.90;;;;;;4968918;28;20461;-73
2023/01/06 09:37:38;;;;;;;2.10;1.57;;;9.70;99.90;;;;;;4968491;28;20483;-73
2023/01/06 09:40:06;;;;;;;1.93;1.83;;;9.70;99.90;;;;;;4968784;28;20503;-73
2023/01/06 09:43:00;;;;;;;4.43;2.30;;;9.70;99.90;;;;;;4968679;28;20476;-73
2023/01/06 09:45:38;;;;;;;2.33;2.13;;;9.70;99.90;;;;;;4964908;28;20476;-72
2023/01/06 09:48:11;;;;;;;2.17;2.07;;;9.70;99.90;;;;;;4959315;28;20456;-73
2023/01/06 09:50:41;;;;;;;3.00;2.20;;;9.80;99.90;;;;;;4948839;28;20969;-73
2023/01/06 09:53:17;;;;;;;3.20;2.90;;;9.80;99.90;;;;;;4949280;28;20448;-72
2023/01/06 09:55:48;;;;;;;8.10;4.30;;;9.80;99.90;;;;;;4949273;28;20546;-73
2023/01/06 09:58:17;;;;;;;5.73;3.47;;;9.90;99.90;;;;;;4948739;28;20463;-72
2023/01/06 10:00:46;;;;;;;2.67;2.10;;;10.00;99.90;;;;;;4948810;28;20501;-71
2023/01/06 10:03:15;;;;;;;4.20;2.80;;;9.90;99.90;;;;;;4949280;28;20463;-70
2023/01/06 10:05:59;;;;;;;2.90;1.87;;;9.90;99.90;;;;;;4945831;28;20946;-73
2023/01/06 10:08:37;;;;;;;2.40;2.20;;;10.00;99.90;;;;;;4947942;28;20456;-71
2023/01/06 10:11:12;;;;;;;1.50;1.40;;;10.10;99.90;;;;;;4948060;28;20833;-72
2023/01/06 10:13:50;;;;;;;4.10;1.07;;;10.10;99.90;;;;;;4945588;28;20461;-72
2023/01/06 10:16:24;;;;;;;3.40;1.53;;;10.10;99.90;;;;;;4946928;28;20465;-72
2023/01/06 10:18:58;;;;;;;1.40;1.30;;;10.10;99.90;;;;;;4948791;28;20449;-73
2023/01/06 10:21:29;;;;;;;1.57;1.43;;;10.10;99.90;;;;;;4947685;28;20505;-72
2023/01/06 10:24:27;;;;;;;3.47;1.40;;;10.20;99.90;;;;;;4947104;28;20437;-73
2023/01/06 10:26:58;;;;;;;1.45;1.30;;;10.20;99.90;;;;;;4946197;29;20456;-72
2023/01/06 10:29:30;;;;;;;1.93;1.50;;;10.40;99.90;;;;;;4948642;28;20198;-73
2023/01/06 10:31:59;;;;;;;2.00;1.40;;;10.50;99.90;;;;;;4948769;28;20506;-75
2023/01/06 10:34:27;;;;;;;1.10;1.00;;;10.50;99.90;;;;;;4948568;28;20466;-73
2023/01/06 10:37:01;;;;;;;1.60;1.20;;;10.60;99.90;;;;;;4947604;28;20454;-71
2023/01/06 10:39:31;;;;;;;1.37;1.27;;;10.60;99.90;;;;;;4948491;28;20218;-73
2023/01/06 10:44:51;;;;;;;1.47;1.20;;;10.60;99.90;;;;;;4948310;29;20430;-70
2023/01/06 10:47:24;;;;;;;1.50;1.40;;;10.60;99.90;;;;;;4947977;28;20456;-73
2023/01/06 10:49:51;;;;;;;2.40;1.10;;;10.60;99.90;;;;;;4948659;28;20887;-73
2023/01/06 10:52:21;;;;;;;1.47;1.23;;;10.60;99.90;;;;;;4948411;28;20576;-72
2023/01/06 10:54:52;;;;;;;1.40;1.23;;;10.60;99.90;;;;;;4948222;28;21299;-70
2023/01/06 10:57:25;;;;;;;4.23;1.07;;;10.70;99.90;;;;;;4948110;28;20452;-73
2023/01/06 11:00:15;;;;;;;1.47;1.03;;;10.80;99.90;;;;;;4947825;28;20904;-72
2023/01/06 11:02:43;;;;;;;1.00;0.90;;;10.70;99.90;;;;;;4948518;28;20442;-73
2023/01/06 11:05:14;;;;;;;1.20;1.10;;;10.70;99.90;;;;;;4947631;28;20484;-72
2023/01/06 11:07:47;;;;;;;1.23;1.10;;;10.70;99.90;;;;;;4947470;28;20453;-72
2023/01/06 11:10:26;;;;;;;1.10;1.00;;;10.70;99.90;;;;;;4948263;28;20461;-70
2023/01/06 11:12:54;;;;;;;1.00;0.90;;;10.70;99.90;;;;;;4948292;28;20452;-70
2023/01/06 11:15:22;;;;;;;1.33;1.10;;;10.70;99.90;;;;;;4947915;28;20942;-72
2023/01/06 11:17:49;;;;;;;0.83;0.83;;;10.70;99.90;;;;;;4947314;28;20954;-72
2023/01/06 11:20:30;;;;;;;1.10;1.00;;;10.70;99.90;;;;;;4947621;28;20489;-72
2023/01/06 11:23:14;;;;;;;1.07;0.97;;;10.70;99.90;;;;;;4947990;28;20437;-73
2023/01/06 11:25:42;;;;;;;1.10;1.00;;;10.70;99.90;;;;;;4947256;28;21460;-71
2023/01/06 11:28:19;;;;;;;1.43;1.00;;;10.90;99.90;;;;;;4947337;28;20221;-72
2023/01/06 11:30:51;;;;;;;2.13;1.00;;;11.00;99.90;;;;;;4948046;28;20466;-73
2023/01/06 11:33:19;;;;;;;1.67;1.13;;;10.90;99.90;;;;;;4947481;28;20446;-70
2023/01/06 11:35:46;;;;;;;1.20;1.10;;;10.90;99.90;;;;;;4948019;28;20449;-73
2023/01/06 11:38:15;;;;;;;1.60;0.97;;;10.80;99.90;;;;;;4947213;28;20470;-72
2023/01/06 11:40:45;;;;;;;2.47;1.60;;;10.80;99.90;;;;;;4947155;28;20496;-71
2023/01/06 11:43:14;;;;;;;1.30;1.20;;;10.80;99.90;;;;;;4947635;28;21087;-72
2023/01/06 11:45:45;;;;;;;1.50;1.40;;;10.90;99.90;;;;;;4947365;28;20465;-73
2023/01/06 11:48:16;;;;;;;2.53;1.37;;;10.90;99.90;;;;;;4947140;28;20461;-72
2023/01/06 11:50:51;;;;;;;1.70;1.60;;;10.90;99.90;;;;;;4947778;28;20474;-72
2023/01/06 11:53:20;;;;;;;2.47;1.50;;;10.90;99.90;;;;;;4947405;28;20461;-71
2023/01/06 11:55:58;;;;;;;1.30;1.20;;;10.90;99.90;;;;;;4947163;28;21141;-73
2023/01/06 11:58:36;;;;;;;1.50;1.13;;;10.90;99.90;;;;;;4946831;28;20453;-73
2023/01/06 12:01:08;;;;;;;1.50;1.40;;;10.90;99.90;;;;;;4947283;28;20508;-72
2023/01/06 12:03:41;;;;;;;1.10;1.00;;;10.90;99.90;;;;;;4947226;28;20465;-72
2023/01/06 12:06:20;;;;;;;1.40;1.13;;;10.90;99.90;;;;;;4946614;28;21328;-73
2023/01/06 12:08:53;;;;;;;1.20;1.10;;;10.90;99.90;;;;;;4947178;28;21293;-72
2023/01/06 12:11:27;;;;;;;2.00;1.10;;;10.90;99.90;;;;;;4945410;28;20476;-73
2023/01/06 12:13:54;;;;;;;4.00;1.13;;;11.00;99.90;;;;;;4947244;28;20442;-72
2023/01/06 12:16:27;;;;;;;1.70;1.40;;;11.00;99.90;;;;;;4946468;28;20461;-72
2023/01/06 12:18:55;;;;;;;1.80;1.03;;;11.00;99.90;;;;;;4950949;28;20460;-73
2023/01/06 12:21:27;;;;;;;1.40;1.10;;;11.00;99.90;;;;;;4950334;28;21431;-72
2023/01/06 12:23:56;;;;;;;1.17;1.03;;;11.00;99.90;;;;;;4951117;28;20466;-71
2023/01/06 12:26:25;;;;;;;1.50;1.20;;;11.00;99.90;;;;;;4950489;28;20465;-73
2023/01/06 12:28:54;;;;;;;1.60;1.30;;;11.00;99.90;;;;;;4950707;28;20976;-73
2023/01/06 12:31:26;;;;;;;1.60;1.50;;;11.00;99.90;;;;;;4950678;28;20976;-72
2023/01/06 12:33:58;;;;;;;2.20;1.20;;;11.00;99.90;;;;;;4950699;28;20992;-72
2023/01/06 12:36:34;;;;;;;2.93;1.43;;;11.10;99.90;;;;;;4950042;28;20925;-73
2023/01/06 12:39:04;;;;;;;2.83;1.33;;;11.10;99.90;;;;;;4951084;28;20528;-73
2023/01/06 12:41:39;;;;;;;3.37;1.83;;;11.00;99.90;;;;;;4950796;28;20505;-73
2023/01/06 12:44:17;;;;;;;3.80;1.80;;;11.10;99.90;;;;;;4950549;28;20785;-61
2023/01/06 12:46:52;;;;;;;1.80;1.47;;;11.10;99.90;;;;;;4949820;28;20511;-62
2023/01/06 12:49:29;;;;;;;7.20;3.47;;;11.10;99.90;;;;;;4950725;28;20803;-62
2023/01/06 12:52:01;;;;;;;7.60;3.47;;;11.20;99.90;;;;;;4950623;28;20535;-63
2023/01/06 12:54:30;;;;;;;2.73;2.00;;;11.10;99.90;;;;;;4950215;28;20457;-62
2023/01/06 12:57:12;;;;;;;2.80;2.00;;;11.20;99.90;;;;;;4949827;28;20449;-63
2023/01/06 12:59:50;;;;;;;1.80;1.50;;;11.20;99.90;;;;;;4950413;28;20462;-63
2023/01/06 13:02:31;;;;;;;2.37;1.30;;;11.20;99.90;;;;;;4949881;28;20505;-63
2023/01/06 13:05:26;;;;;;;2.10;1.37;;;11.20;99.90;;;;;;4950155;28;20444;-64
2023/01/06 13:08:01;;;;;;;4.30;1.30;;;11.30;99.90;;;;;;4949311;28;20467;-63
2023/01/06 13:10:36;;;;;;;1.30;1.20;;;11.40;99.90;;;;;;4950041;28;20460;-64
2023/01/06 13:13:51;;;;;;;1.73;1.27;;;11.40;99.90;;;;;;4950210;28;20460;-64
2023/01/06 13:16:25;;;;;;;3.80;1.30;;;11.40;99.90;;;;;;4908960;29;20455;-69
2023/01/06 13:19:01;;;;;;;1.83;1.30;;;11.40;99.90;;;;;;4908791;29;20467;-69
2023/01/06 13:21:31;;;;;;;1.30;1.20;;;11.40;99.90;;;;;;4931482;28;20869;-67
2023/01/06 13:24:24;;;;;;;1.00;1.00;;;11.50;99.90;;;;;;4949897;28;20465;-71
2023/01/06 13:27:04;;;;;;;1.30;1.20;;;11.40;99.90;;;;;;4947458;28;20484;-68
2023/01/06 13:29:42;;;;;;;2.00;1.80;;;11.50;99.90;;;;;;4949474;28;20457;-69
2023/01/06 13:32:37;;;;;;;5.20;1.30;;;11.50;99.90;;;;;;4949516;28;20477;-67
2023/01/06 13:35:31;;;;;;;1.30;1.00;;;11.40;99.90;;;;;;4949667;28;20456;-67
2023/01/06 13:38:11;;;;;;;1.30;1.20;;;11.50;99.90;;;;;;4948756;28;21128;-66
2023/01/06 13:40:41;;;;;;;1.90;1.50;;;11.40;99.90;;;;;;4949101;28;21552;-65
2023/01/06 13:43:16;;;;;;;1.50;1.40;;;11.30;99.90;;;;;;4949576;28;20456;-65
2023/01/06 13:45:48;;;;;;;2.40;2.13;;;11.30;99.90;;;;;;4949852;28;20449;-65
2023/01/06 13:48:18;;;;;;;1.50;1.40;;;11.20;99.90;;;;;;4948682;28;20461;-65
2023/01/06 13:50:45;;;;;;;1.83;1.27;;;11.20;99.90;;;;;;4949338;28;20473;-65
2023/01/06 13:53:17;;;;;;;2.33;1.83;;;11.30;99.90;;;;;;4949603;28;20489;-65
2023/01/06 13:55:45;;;;;;;1.97;1.77;;;11.30;99.90;;;;;;4949014;28;20515;-65
2023/01/06 13:58:37;;;;;;;2.63;1.87;;;11.30;99.90;;;;;;4948942;28;20469;-65
2023/01/06 14:01:10;;;;;;;1.57;1.47;;;11.20;99.90;;;;;;4947100;28;20508;-65
2023/01/06 14:03:38;;;;;;;2.70;2.00;;;11.10;99.90;;;;;;4949208;28;20460;-65
2023/01/06 14:06:09;;;;;;;1.67;1.33;;;11.10;99.90;;;;;;4948700;28;20466;-69
2023/01/06 14:08:39;;;;;;;5.33;1.70;;;11.10;99.90;;;;;;4949164;28;20453;-72
2023/01/06 14:11:27;;;;;;;1.53;1.40;;;11.10;99.90;;;;;;4949121;28;20480;-73
2023/01/06 14:13:55;;;;;;;1.23;1.10;;;11.00;99.90;;;;;;4948746;28;20450;-73
2023/01/06 14:16:39;;;;;;;2.00;1.80;;;11.10;99.90;;;;;;4946925;28;21201;-72
2023/01/06 14:19:09;;;;;;;2.63;1.50;;;11.30;99.90;;;;;;4949159;28;20265;-70
2023/01/06 14:21:36;;;;;;;2.70;2.13;;;11.30;99.90;;;;;;4948801;28;20496;-70
2023/01/06 14:24:05;;;;;;;2.57;2.20;;;11.20;99.90;;;;;;4948621;28;20460;-72
2023/01/06 14:26:46;;;;;;;2.30;2.10;;;11.10;99.90;;;;;;4948421;28;20517;-73
2023/01/06 14:29:44;;;;;;;4.10;2.57;;;11.00;99.90;;;;;;4948560;28;20472;-73
2023/01/06 14:32:58;;;;;;;3.03;1.97;;;11.00;99.90;;;;;;4948823;28;20508;-73
2023/01/06 14:35:30;;;;;;;2.17;1.97;;;11.00;99.90;;;;;;4948519;28;20457;-73
2023/01/06 14:38:01;;;;;;;1.80;1.70;;;11.00;99.90;;;;;;4946512;28;20800;-73
2023/01/06 14:40:30;;;;;;;1.70;1.60;;;11.20;99.90;;;;;;4947573;28;20790;-72
2023/01/06 14:42:59;;;;;;;4.07;2.10;;;11.20;99.90;;;;;;4948202;28;21017;-73
2023/01/06 14:45:28;;;;;;;4.20;2.40;;;11.20;99.90;;;;;;4948664;28;20462;-73
2023/01/06 14:48:04;;;;;;;3.77;2.07;;;11.10;99.90;;;;;;4947927;28;20832;-73
2023/01/06 14:50:32;;;;;;;5.10;3.47;;;11.20;99.90;;;;;;4948448;28;20444;-73
2023/01/06 14:53:02;;;;;;;10.90;3.80;;;11.10;99.90;;;;;;4948159;28;20449;-73
2023/01/06 14:55:34;;;;;;;3.50;2.50;;;11.10;99.90;;;;;;4948079;28;20453;-73
2023/01/06 14:58:01;;;;;;;3.20;2.00;;;11.00;99.90;;;;;;4947688;28;20452;-73
2023/01/06 15:00:32;;;;;;;3.13;1.63;;;11.00;99.90;;;;;;4948034;28;20460;-73
2023/01/06 15:03:03;;;;;;;2.50;2.30;;;11.00;99.90;;;;;;4947993;28;21041;-73
2023/01/06 15:05:32;;;;;;;2.20;1.80;;;10.90;99.90;;;;;;4948176;28;20447;-73
2023/01/06 15:08:01;;;;;;;2.00;1.63;;;11.00;99.90;;;;;;4947394;28;20218;-73
2023/01/06 15:10:31;;;;;;;2.70;1.90;;;11.00;99.90;;;;;;4948065;28;20452;-73
2023/01/06 15:12:58;;;;;;;2.17;1.93;;;11.00;99.90;;;;;;4948396;28;20813;-73
2023/01/06 15:15:27;;;;;;;2.37;1.90;;;11.00;99.90;;;;;;4947973;28;20457;-73
2023/01/06 15:17:56;;;;;;;2.50;2.30;;;11.00;99.90;;;;;;4947181;28;20450;-73
2023/01/06 15:20:29;;;;;;;2.33;2.10;;;11.00;99.90;;;;;;4947447;28;20950;-71
2023/01/06 15:22:56;;;;;;;2.07;1.80;;;11.00;99.90;;;;;;4947953;28;20497;-73
2023/01/06 15:25:26;;;;;;;2.87;1.97;;;11.00;99.90;;;;;;4947495;28;20954;-72
2023/01/06 15:27:54;;;;;;;5.60;3.77;;;10.90;99.90;;;;;;4947182;28;20454;-73
2023/01/06 15:30:22;;;;;;;13.07;8.80;;;10.90;99.90;;;;;;4947434;28;20573;-70
2023/01/06 15:32:50;;;;;;;11.43;7.83;;;10.90;99.90;;;;;;4947507;28;20453;-70
2023/01/06 15:35:20;;;;;;;5.73;4.73;;;10.90;99.90;;;;;;4947623;28;20457;-72
2023/01/06 15:37:55;;;;;;;6.13;5.40;;;10.80;99.90;;;;;;4947122;28;20460;-72
2023/01/06 15:40:22;;;;;;;6.20;4.30;;;10.80;99.90;;;;;;4947271;28;20991;-72
2023/01/06 15:42:49;;;;;;;3.70;2.50;;;10.90;99.90;;;;;;4947329;28;20504;-73
2023/01/06 15:45:25;;;;;;;3.40;2.30;;;10.80;99.90;;;;;;4946760;28;20494;-73
2023/01/06 15:47:54;;;;;;;2.17;1.90;;;11.10;99.90;;;;;;4947225;28;20447;-73
2023/01/06 15:50:24;;;;;;;4.57;3.30;;;11.00;99.90;;;;;;4947279;28;20465;-73
2023/01/06 15:52:54;;;;;;;3.57;2.20;;;11.00;99.90;;;;;;4953771;28;20457;-73
2023/01/06 15:55:25;;;;;;;2.30;2.10;;;11.00;99.90;;;;;;4953631;28;20452;-73
2023/01/06 15:57:57;;;;;;;2.80;1.90;;;10.90;99.90;;;;;;4953145;28;20461;-73
2023/01/06 16:00:27;;;;;;;1.90;1.80;;;10.90;99.90;;;;;;4953991;28;20464;-73
2023/01/06 16:02:54;;;;;;;2.57;1.90;;;10.90;99.90;;;;;;4953777;28;21008;-72
2023/01/06 16:05:39;;;;;;;2.40;1.73;;;10.90;99.90;;;;;;4954084;28;20483;-73
2023/01/06 16:08:17;;;;;;;2.60;2.20;;;10.90;99.90;;;;;;4952986;28;20461;-73
2023/01/06 16:10:45;;;;;;;3.63;2.20;;;10.90;99.90;;;;;;4953806;28;20575;-73
2023/01/06 16:13:25;;;;;;;1.93;1.80;;;10.90;99.90;;;;;;4953677;28;20457;-71
2023/01/06 16:15:56;;;;;;;2.97;1.90;;;10.90;99.90;;;;;;4953745;28;20452;-73
2023/01/06 16:18:29;;;;;;;4.30;2.37;;;10.90;99.90;;;;;;4953347;28;20456;-73
2023/01/06 16:20:56;;;;;;;3.97;2.97;;;10.80;99.90;;;;;;4953860;28;20480;-73
2023/01/06 16:23:30;;;;;;;5.63;2.57;;;10.80;99.90;;;;;;4953775;28;20499;-73
2023/01/06 16:26:11;;;;;;;2.70;2.20;;;10.80;99.90;;;;;;4953438;28;20451;-73
2023/01/06 16:28:45;;;;;;;3.20;2.30;;;10.80;99.90;;;;;;4953754;28;20468;-73
2023/01/06 16:31:14;;;;;;;3.80;2.20;;;10.90;99.90;;;;;;4953848;28;20473;-73
2023/01/06 16:33:44;;;;;;;2.40;2.00;;;10.90;99.90;;;;;;4954005;28;20459;-73
2023/01/06 16:36:15;;;;;;;3.13;2.00;;;10.90;99.90;;;;;;4952933;28;20468;-73
2023/01/06 16:38:44;;;;;;;3.30;2.07;;;10.90;99.90;;;;;;4954019;28;20464;-73
2023/01/06 16:41:16;;;;;;;3.80;2.30;;;10.90;99.90;;;;;;4953640;28;20483;-73
2023/01/06 16:43:43;;;;;;;3.93;2.63;;;11.00;99.90;;;;;;4953791;28;20452;-74
2023/01/06 16:46:20;;;;;;;3.80;2.80;;;11.00;99.90;;;;;;4953440;28;20449;-73
2023/01/06 16:48:47;;;;;;;2.30;2.10;;;11.00;99.90;;;;;;4953724;28;20444;-73
2023/01/06 16:51:16;;;;;;;2.70;1.87;;;10.90;99.90;;;;;;4953483;28;20481;-73
2023/01/06 16:53:44;;;;;;;1.97;1.60;;;10.90;99.90;;;;;;4953340;28;20469;-73
2023/01/06 16:56:17;;;;;;;2.03;1.50;;;10.80;99.90;;;;;;4952581;28;20449;-73
2023/01/06 16:58:44;;;;;;;2.67;1.90;;;10.70;99.90;;;;;;4953461;28;20477;-73
2023/01/06 17:01:15;;;;;;;3.93;2.60;;;10.70;99.90;;;;;;4953211;28;20485;-73
2023/01/06 17:03:42;;;;;;;5.17;2.80;;;10.70;99.90;;;;;;4950542;28;20552;-73
2023/01/06 17:06:12;;;;;;;5.20;3.10;;;10.70;99.90;;;;;;4950099;28;20476;-73
2023/01/06 17:08:39;;;;;;;6.00;3.40;;;10.70;99.90;;;;;;4950610;28;20465;-73
2023/01/06 17:11:15;;;;;;;4.80;3.10;;;10.70;99.90;;;;;;4950585;28;20539;-73
2023/01/06 17:13:45;;;;;;;3.20;2.90;;;10.70;99.90;;;;;;4950394;28;20445;-73
2023/01/06 17:16:15;;;;;;;4.97;3.00;;;10.70;99.90;;;;;;4949722;28;20872;-73
2023/01/06 17:18:53;;;;;;;4.60;3.07;;;10.70;99.90;;;;;;4950210;28;20460;-73
2023/01/06 17:21:23;;;;;;;4.17;2.97;;;10.70;99.90;;;;;;4949337;28;20514;-73
2023/01/06 17:23:53;;;;;;;5.27;4.60;;;10.60;99.90;;;;;;4949154;28;20516;-73
2023/01/06 17:26:23;;;;;;;5.87;4.43;;;10.60;99.90;;;;;;4948346;28;20453;-73
2023/01/06 17:28:52;;;;;;;5.97;3.83;;;10.60;99.90;;;;;;4948939;28;20547;-73
2023/01/06 17:31:27;;;;;;;5.27;3.87;;;10.60;99.90;;;;;;4949374;28;20480;-73
2023/01/06 17:33:55;;;;;;;3.90;3.20;;;10.70;99.90;;;;;;4949283;28;20465;-73
2023/01/06 17:36:23;;;;;;;4.47;3.90;;;10.70;99.90;;;;;;4948955;28;20461;-73
2023/01/06 17:38:51;;;;;;;9.10;3.57;;;10.70;99.90;;;;;;4949606;28;20464;-73
2023/01/06 17:41:19;;;;;;;5.00;3.93;;;10.80;99.90;;;;;;4949281;28;20476;-73
2023/01/06 17:43:47;;;;;;;7.67;5.27;;;10.80;99.90;;;;;;4948919;28;20664;-73
2023/01/06 17:46:19;;;;;;;10.17;6.23;;;10.80;99.90;;;;;;4948250;28;21164;-73
2023/01/06 17:48:47;;;;;;;6.17;4.23;;;10.80;99.90;;;;;;4948916;28;20512;-73
2023/01/06 17:51:16;;;;;;;8.13;4.97;;;10.70;99.90;;;;;;4948846;28;20477;-73
2023/01/06 17:56:32;;;;;;;6.77;3.97;;;10.60;99.90;;;;;;4910578;28;20553;-72
2023/01/06 17:59:09;;;;;;;5.43;4.30;;;10.60;99.90;;;;;;4949234;28;20448;-73
2023/01/06 18:01:36;;;;;;;4.77;4.20;;;10.60;99.90;;;;;;4949196;28;20918;-73
2023/01/06 18:04:05;;;;;;;4.50;3.20;;;10.60;99.90;;;;;;4948575;28;20461;-73
2023/01/06 18:06:36;;;;;;;5.13;3.47;;;10.70;99.90;;;;;;4947982;28;20461;-73
2023/01/06 18:09:11;;;;;;;4.47;3.57;;;10.70;99.90;;;;;;4948608;28;20805;-73
2023/01/06 18:11:40;;;;;;;4.70;3.60;;;10.60;99.90;;;;;;4948753;28;20543;-73
2023/01/06 18:14:23;;;;;;;5.70;3.40;;;10.60;99.90;;;;;;4948019;28;20472;-73